createdAt,value
2023-03-03T00:01:34.929Z,96.67
2023-03-03T00:04:03.456Z,96.59
2023-03-03T00:06:31.982Z,97.22
2023-03-03T00:09:01.477Z,97.67
2023-03-03T00:11:29.464Z,98.48
2023-03-03T00:13:58.551Z,98.09
2023-03-03T00:16:31.138Z,98.24
2023-03-03T00:19:01.378Z,98.60
2023-03-03T00:21:31.739Z,98.46
2023-03-03T00:24:16.539Z,99.29
2023-03-03T00:26:47.683Z,98.16
2023-03-03T00:29:37.990Z,97.48
2023-03-03T00:32:24.008Z,98.22
2023-03-03T00:34:53.436Z,99.74
2023-03-03T00:37:29.446Z,99.57
2023-03-03T00:40:15.584Z,99.84
2023-03-03T00:42:46.581Z,99.33
2023-03-03T00:45:30.723Z,98.91
2023-03-03T00:48:00.245Z,98.82
2023-03-03T00:50:31.457Z,99.61
2023-03-03T00:53:08.085Z,100.00
2023-03-03T00:55:37.725Z,99.98
2023-03-03T00:58:06.206Z,98.88
2023-03-03T01:00:34.644Z,98.75
2023-03-03T01:03:05.297Z,99.90
2023-03-03T01:05:34.242Z,99.61
2023-03-03T01:08:03.222Z,99.38
2023-03-03T01:10:34.360Z,100.00
2023-03-03T01:13:04.459Z,99.54
2023-03-03T01:15:32.972Z,98.39
2023-03-03T01:18:01.870Z,99.24
2023-03-03T01:20:29.994Z,98.93
2023-03-03T01:22:57.968Z,99.05
2023-03-03T01:25:26.071Z,98.57
2023-03-03T01:27:54.214Z,98.35
2023-03-03T01:30:24.200Z,98.94
2023-03-03T01:32:52.576Z,99.33
2023-03-03T01:35:20.923Z,99.80
2023-03-03T01:37:48.934Z,99.98
2023-03-03T01:40:19.242Z,100.00
2023-03-03T01:42:47.326Z,100.00
2023-03-03T01:45:19.572Z,100.00
2023-03-03T01:47:54.350Z,100.00
2023-03-03T01:50:32.700Z,100.00
2023-03-03T01:53:03.908Z,100.00
2023-03-03T01:55:35.968Z,100.00
2023-03-03T01:58:08.625Z,100.00
2023-03-03T02:00:38.980Z,100.00
2023-03-03T02:03:08.712Z,100.00
2023-03-03T02:05:37.222Z,100.00
2023-03-03T02:08:06.019Z,100.00
2023-03-03T02:10:34.605Z,100.00
2023-03-03T02:13:03.051Z,100.00
2023-03-03T02:15:36.024Z,100.00
2023-03-03T02:18:06.481Z,100.00
2023-03-03T02:20:53.185Z,100.00
2023-03-03T02:23:27.472Z,100.00
2023-03-03T02:26:04.486Z,100.00
2023-03-03T02:28:35.295Z,100.00
2023-03-03T02:31:03.660Z,100.00
2023-03-03T02:33:31.682Z,100.00
2023-03-03T02:35:59.804Z,100.00
2023-03-03T02:38:31.474Z,100.00
2023-03-03T02:41:09.391Z,100.00
2023-03-03T02:43:46.106Z,100.00
2023-03-03T02:46:14.674Z,100.00
2023-03-03T02:48:42.836Z,100.00
2023-03-03T02:51:10.980Z,100.00
2023-03-03T02:53:39.022Z,100.00
2023-03-03T02:56:10.197Z,100.00
2023-03-03T02:58:39.031Z,100.00
2023-03-03T03:01:07.365Z,100.00
2023-03-03T03:03:35.521Z,100.00
2023-03-03T03:06:04.323Z,100.00
2023-03-03T03:08:32.513Z,100.00
2023-03-03T03:11:00.734Z,100.00
2023-03-03T03:13:30.596Z,100.00
2023-03-03T03:15:58.707Z,100.00
2023-03-03T03:18:28.143Z,100.00
2023-03-03T03:20:56.297Z,100.00
2023-03-03T03:23:24.350Z,100.00
2023-03-03T03:25:52.675Z,100.00
2023-03-03T03:28:20.725Z,100.00
2023-03-03T03:30:53.041Z,100.00
2023-03-03T03:33:21.608Z,100.00
2023-03-03T03:35:50.598Z,100.00
2023-03-03T03:38:18.875Z,100.00
2023-03-03T03:40:47.002Z,100.00
2023-03-03T03:43:15.521Z,100.00
2023-03-03T03:45:44.812Z,100.00
2023-03-03T03:48:15.993Z,100.00
2023-03-03T03:50:44.194Z,100.00
2023-03-03T03:53:12.466Z,100.00
2023-03-03T03:55:40.911Z,100.00
2023-03-03T03:58:09.027Z,100.00
2023-03-03T04:00:37.228Z,100.00
2023-03-03T04:03:05.888Z,100.00
2023-03-03T04:05:35.416Z,100.00
2023-03-03T04:08:03.954Z,100.00
2023-03-03T04:10:32.243Z,100.00
2023-03-03T04:13:00.250Z,100.00
2023-03-03T04:15:28.432Z,100.00
2023-03-03T04:17:56.935Z,100.00
2023-03-03T04:20:25.256Z,100.00
2023-03-03T04:22:55.231Z,100.00
2023-03-03T04:25:23.560Z,100.00
2023-03-03T04:27:52.244Z,100.00
2023-03-03T04:30:20.737Z,100.00
2023-03-03T04:32:49.834Z,100.00
2023-03-03T04:35:18.237Z,100.00
2023-03-03T04:37:46.338Z,100.00
2023-03-03T04:40:16.580Z,100.00
2023-03-03T04:42:44.676Z,100.00
2023-03-03T04:45:13.551Z,100.00
2023-03-03T04:47:42.024Z,100.00
2023-03-03T04:50:11.834Z,100.00
2023-03-03T04:52:40.438Z,100.00
2023-03-03T04:55:10.588Z,100.00
2023-03-03T04:57:40.168Z,100.00
2023-03-03T05:00:09.699Z,100.00
2023-03-03T05:02:38.107Z,100.00
2023-03-03T05:05:07.117Z,100.00
2023-03-03T05:07:35.161Z,100.00
2023-03-03T05:10:03.513Z,100.00
2023-03-03T05:12:31.881Z,100.00
2023-03-03T05:15:01.539Z,100.00
2023-03-03T05:17:30.104Z,100.00
2023-03-03T05:19:58.351Z,100.00
2023-03-03T05:22:27.003Z,100.00
2023-03-03T05:24:55.144Z,100.00
2023-03-03T05:27:23.138Z,100.00
2023-03-03T05:29:51.474Z,100.00
2023-03-03T05:32:21.068Z,100.00
2023-03-03T05:34:49.190Z,100.00
2023-03-03T05:37:17.402Z,100.00
2023-03-03T05:39:45.476Z,100.00
2023-03-03T05:42:14.293Z,100.00
2023-03-03T05:44:42.576Z,100.00
2023-03-03T05:47:11.073Z,100.00
2023-03-03T05:49:40.803Z,100.00
2023-03-03T05:52:09.451Z,100.00
2023-03-03T05:54:38.340Z,100.00
2023-03-03T05:57:06.378Z,100.00
2023-03-03T05:59:34.458Z,100.00
2023-03-03T06:02:03.051Z,100.00
2023-03-03T06:04:31.423Z,100.00
2023-03-03T06:07:00.990Z,100.00
2023-03-03T06:09:29.160Z,100.00
2023-03-03T06:11:57.261Z,100.00
2023-03-03T06:14:27.065Z,100.00
2023-03-03T06:16:55.675Z,100.00
2023-03-03T06:19:23.770Z,100.00
2023-03-03T06:21:51.857Z,100.00
2023-03-03T06:24:21.699Z,100.00
2023-03-03T06:26:49.817Z,100.00
2023-03-03T06:29:18.303Z,100.00
2023-03-03T06:31:46.830Z,100.00
2023-03-03T06:34:15.075Z,100.00
2023-03-03T06:36:43.443Z,100.00
2023-03-03T06:39:11.798Z,100.00
2023-03-03T06:41:41.479Z,100.00
2023-03-03T06:44:09.717Z,100.00
2023-03-03T06:46:37.848Z,100.00
2023-03-03T06:49:06.381Z,100.00
2023-03-03T06:51:38.609Z,100.00
2023-03-03T06:54:12.879Z,100.00
2023-03-03T06:56:43.462Z,100.00
2023-03-03T06:59:14.920Z,100.00
2023-03-03T07:01:44.102Z,100.00
2023-03-03T07:04:18.044Z,100.00
2023-03-03T07:06:46.868Z,100.00
2023-03-03T07:09:22.200Z,100.00
2023-03-03T07:11:52.091Z,100.00
2023-03-03T07:14:22.011Z,100.00
2023-03-03T07:16:55.125Z,100.00
2023-03-03T07:19:31.598Z,100.00
2023-03-03T07:22:00.524Z,100.00
2023-03-03T07:24:30.366Z,100.00
2023-03-03T07:27:12.594Z,100.00
2023-03-03T07:29:42.413Z,100.00
2023-03-03T07:32:29.226Z,100.00
2023-03-03T07:34:57.852Z,100.00
2023-03-03T07:37:33.065Z,100.00
2023-03-03T07:40:02.393Z,100.00
2023-03-03T07:42:39.047Z,100.00
2023-03-03T07:45:24.841Z,100.00
2023-03-03T07:47:52.927Z,100.00
2023-03-03T07:50:24.425Z,100.00
2023-03-03T07:52:57.501Z,100.00
2023-03-03T07:55:34.997Z,100.00
2023-03-03T07:58:22.398Z,100.00
2023-03-03T08:01:29.438Z,100.00
2023-03-03T08:03:58.439Z,100.00
2023-03-03T08:06:49.650Z,100.00
2023-03-03T08:09:37.553Z,100.00
2023-03-03T08:12:30.754Z,100.00
2023-03-03T08:15:16.016Z,100.00
2023-03-03T08:17:46.023Z,100.00
2023-03-03T08:20:46.715Z,100.00
2023-03-03T08:23:16.313Z,100.00
2023-03-03T08:25:45.498Z,100.00
2023-03-03T08:28:14.215Z,100.00
2023-03-03T08:30:45.504Z,100.00
2023-03-03T08:33:14.503Z,100.00
2023-03-03T08:35:42.927Z,100.00
2023-03-03T08:38:11.650Z,100.00
2023-03-03T08:40:40.088Z,100.00
2023-03-03T08:43:08.564Z,100.00
2023-03-03T08:45:37.545Z,100.00
2023-03-03T08:48:07.915Z,100.00
2023-03-03T08:50:36.197Z,100.00
2023-03-03T08:53:04.309Z,100.00
2023-03-03T08:55:32.793Z,100.00
2023-03-03T08:58:01.286Z,100.00
2023-03-03T09:00:29.671Z,98.86
2023-03-03T09:02:58.034Z,94.70
2023-03-03T09:05:28.268Z,94.28
2023-03-03T09:07:57.001Z,95.87
2023-03-03T09:10:30.945Z,91.67
2023-03-03T09:13:02.056Z,90.44
2023-03-03T09:15:32.486Z,93.87
2023-03-03T09:18:03.566Z,91.29
2023-03-03T09:20:39.307Z,91.16
2023-03-03T09:23:42.538Z,93.16
2023-03-03T09:26:30.906Z,93.31
2023-03-03T09:29:17.259Z,93.87
2023-03-03T09:31:47.507Z,93.84
2023-03-03T09:34:23.606Z,94.94
2023-03-03T09:36:54.114Z,93.94
2023-03-03T09:39:24.885Z,92.33
2023-03-03T09:42:16.476Z,91.76
2023-03-03T09:45:04.716Z,93.61
2023-03-03T09:47:49.117Z,94.31
2023-03-03T09:50:31.169Z,95.60
2023-03-03T09:53:17.012Z,92.99
2023-03-03T09:55:52.002Z,95.44
2023-03-03T09:58:37.620Z,95.64
2023-03-03T10:01:34.313Z,95.43
2023-03-03T10:04:42.298Z,94.30
2023-03-03T10:07:27.602Z,97.70
2023-03-03T10:10:23.027Z,96.46
2023-03-03T10:13:06.637Z,93.85
2023-03-03T10:15:45.398Z,95.99
2023-03-03T10:18:33.513Z,96.01
2023-03-03T10:21:10.120Z,96.25
2023-03-03T10:23:58.863Z,92.92
2023-03-03T10:27:12.544Z,92.55
2023-03-03T10:29:51.659Z,93.88
2023-03-03T10:32:49.852Z,93.63
2023-03-03T10:35:32.405Z,93.20
2023-03-03T10:38:33.369Z,92.43
2023-03-03T10:41:18.906Z,89.91
2023-03-03T10:44:11.726Z,90.64
2023-03-03T10:46:53.255Z,92.65
2023-03-03T10:49:40.066Z,91.12
2023-03-03T10:52:24.261Z,94.12
2023-03-03T10:55:10.565Z,93.90
2023-03-03T10:57:46.448Z,96.34
2023-03-03T11:00:41.888Z,95.06
2023-03-03T11:03:50.387Z,90.83
2023-03-03T11:06:23.570Z,92.63
2023-03-03T11:08:56.860Z,92.31
2023-03-03T11:11:36.451Z,89.77
2023-03-03T11:14:13.619Z,88.39
2023-03-03T11:17:01.458Z,88.42
2023-03-03T11:19:52.803Z,91.72
2023-03-03T11:22:35.349Z,92.65
2023-03-03T11:25:17.477Z,89.87
2023-03-03T11:28:15.869Z,88.97
2023-03-03T11:30:56.775Z,88.13
2023-03-03T11:33:33.383Z,87.16
2023-03-03T11:36:12.470Z,85.49
2023-03-03T11:38:55.014Z,88.80
2023-03-03T11:41:35.724Z,86.69
2023-03-03T11:44:13.062Z,87.51
2023-03-03T11:46:46.244Z,87.79
2023-03-03T11:49:22.800Z,87.60
2023-03-03T11:52:03.526Z,85.69
2023-03-03T11:54:38.264Z,86.23
2023-03-03T11:57:18.421Z,87.97
2023-03-03T11:59:57.524Z,87.14
2023-03-03T12:02:52.155Z,86.05
2023-03-03T12:05:36.402Z,83.95
2023-03-03T12:08:15.331Z,83.29
2023-03-03T12:10:52.279Z,84.03
2023-03-03T12:13:28.870Z,81.56
2023-03-03T12:16:05.750Z,82.94
2023-03-03T12:18:51.815Z,79.50
2023-03-03T12:21:56.711Z,81.03
2023-03-03T12:24:43.534Z,80.24
2023-03-03T12:27:20.643Z,82.37
2023-03-03T12:30:03.333Z,84.48
2023-03-03T12:33:02.734Z,82.93
2023-03-03T12:35:38.003Z,80.35
2023-03-03T12:38:16.550Z,80.82
2023-03-03T12:40:52.255Z,81.25
2023-03-03T12:43:36.259Z,80.20
2023-03-03T12:46:10.500Z,81.17
2023-03-03T12:48:43.271Z,83.71
2023-03-03T12:51:20.249Z,80.79
2023-03-03T12:54:37.033Z,80.44
2023-03-03T12:57:15.393Z,83.50
2023-03-03T12:59:49.974Z,86.71
2023-03-03T13:02:35.189Z,84.12
2023-03-03T13:05:10.317Z,84.64
2023-03-03T13:07:46.387Z,83.31
2023-03-03T13:10:25.645Z,81.71
2023-03-03T13:13:00.914Z,81.41
2023-03-03T13:15:33.898Z,81.92
2023-03-03T13:18:20.909Z,84.42
2023-03-03T13:20:55.186Z,83.57
2023-03-03T13:23:38.473Z,86.36
2023-03-03T13:26:15.310Z,86.43
2023-03-03T13:28:58.108Z,85.43
2023-03-03T13:31:33.404Z,86.22
2023-03-03T13:34:03.217Z,86.08
2023-03-03T13:36:39.614Z,85.67
2023-03-03T13:39:20.137Z,85.28
2023-03-03T13:41:58.052Z,84.94
2023-03-03T13:44:32.205Z,83.12
2023-03-03T13:47:04.245Z,82.74
2023-03-03T13:49:47.690Z,83.68
2023-03-03T13:52:22.499Z,82.47
2023-03-03T13:55:07.405Z,81.19
2023-03-03T13:57:45.332Z,81.04
2023-03-03T14:00:22.810Z,81.51
2023-03-03T14:03:05.129Z,82.34
2023-03-03T14:05:39.366Z,83.68
2023-03-03T14:08:12.758Z,84.10
2023-03-03T14:10:45.564Z,83.94
2023-03-03T14:13:21.923Z,83.93
2023-03-03T14:15:57.166Z,84.15
2023-03-03T14:18:32.434Z,84.03
2023-03-03T14:21:06.317Z,85.02
2023-03-03T14:23:47.664Z,84.94
2023-03-03T14:26:15.804Z,85.87
2023-03-03T14:28:48.453Z,85.49
2023-03-03T14:31:23.054Z,85.54
2023-03-03T14:34:03.704Z,85.42
2023-03-03T14:36:41.816Z,84.48
2023-03-03T14:39:31.888Z,85.09
2023-03-03T14:42:00.737Z,84.64
2023-03-03T14:44:33.385Z,86.40
2023-03-03T14:47:17.907Z,85.01
2023-03-03T14:49:45.939Z,85.27
2023-03-03T14:52:23.856Z,84.14
2023-03-03T14:54:54.085Z,85.91
2023-03-03T14:57:24.610Z,85.96
2023-03-03T15:00:07.025Z,86.33
2023-03-03T15:02:42.251Z,85.30
2023-03-03T15:05:18.903Z,84.95
2023-03-03T15:07:48.909Z,84.98
2023-03-03T15:10:30.076Z,84.36
2023-03-03T15:12:58.239Z,84.96
2023-03-03T15:15:29.744Z,85.18
2023-03-03T15:18:02.856Z,83.87
2023-03-03T15:20:43.801Z,84.89
2023-03-03T15:23:36.023Z,85.36
2023-03-03T15:26:09.914Z,87.40
2023-03-03T15:29:00.663Z,88.32
2023-03-03T15:31:40.196Z,88.33
2023-03-03T15:34:25.116Z,88.32
2023-03-03T15:37:00.405Z,90.66
2023-03-03T15:39:36.235Z,91.24
2023-03-03T15:42:07.382Z,91.38
2023-03-03T15:44:52.527Z,91.53
2023-03-03T15:47:44.866Z,91.54
2023-03-03T15:50:27.293Z,93.10
2023-03-03T15:53:08.073Z,92.67
2023-03-03T15:55:56.455Z,93.19
2023-03-03T15:59:02.431Z,93.56
2023-03-03T16:01:35.033Z,93.30
2023-03-03T16:04:08.594Z,94.44
2023-03-03T16:06:48.484Z,95.26
2023-03-03T16:09:32.456Z,95.31
2023-03-03T16:12:09.877Z,96.87
2023-03-03T16:14:51.001Z,98.07
2023-03-03T16:17:29.043Z,98.83
2023-03-03T16:20:07.449Z,100.00
2023-03-03T16:22:50.038Z,100.00
2023-03-03T16:25:48.619Z,100.00
2023-03-03T16:28:23.968Z,100.00
2023-03-03T16:30:58.481Z,100.00
2023-03-03T16:33:35.766Z,100.00
2023-03-03T16:36:14.299Z,100.00
2023-03-03T16:38:46.204Z,100.00
2023-03-03T16:41:21.024Z,100.00
2023-03-03T16:44:00.823Z,100.00
2023-03-03T16:46:34.909Z,100.00
2023-03-03T16:49:07.833Z,100.00
2023-03-03T16:51:45.933Z,100.00
2023-03-03T16:54:22.081Z,100.00
2023-03-03T16:57:01.989Z,100.00
2023-03-03T16:59:57.060Z,100.00
2023-03-03T17:02:48.976Z,100.00
2023-03-03T17:05:26.799Z,100.00
2023-03-03T17:08:13.516Z,100.00
2023-03-03T17:10:46.074Z,100.00
2023-03-03T17:13:33.545Z,100.00
2023-03-03T17:16:11.491Z,100.00
2023-03-03T17:18:54.245Z,100.00
2023-03-03T17:21:31.126Z,100.00
2023-03-03T17:24:24.548Z,100.00
2023-03-03T17:27:01.704Z,100.00
2023-03-03T17:29:41.010Z,100.00
2023-03-03T17:32:22.913Z,100.00
2023-03-03T17:35:07.076Z,100.00
2023-03-03T17:37:45.490Z,100.00
2023-03-03T17:40:26.311Z,100.00
2023-03-03T17:43:02.728Z,100.00
2023-03-03T17:45:36.758Z,100.00
2023-03-03T17:48:19.755Z,100.00
2023-03-03T17:51:04.888Z,100.00
2023-03-03T17:53:56.914Z,100.00
2023-03-03T17:56:31.106Z,100.00
2023-03-03T17:59:09.629Z,100.00
2023-03-03T18:02:02.613Z,100.00
2023-03-03T18:05:03.868Z,100.00
2023-03-03T18:07:58.917Z,100.00
2023-03-03T18:10:44.370Z,100.00
2023-03-03T18:13:30.576Z,100.00
2023-03-03T18:16:12.389Z,100.00
2023-03-03T18:19:10.852Z,100.00
2023-03-03T18:21:44.938Z,100.00
2023-03-03T18:24:31.858Z,100.00
2023-03-03T18:27:29.337Z,100.00
2023-03-03T18:30:21.793Z,100.00
2023-03-03T18:33:07.456Z,100.00
2023-03-03T18:35:38.612Z,100.00
2023-03-03T18:38:32.305Z,100.00
2023-03-03T18:41:02.500Z,100.00
2023-03-03T18:43:52.322Z,100.00
2023-03-03T18:47:02.552Z,100.00
2023-03-03T18:49:52.955Z,100.00
2023-03-03T18:52:27.488Z,100.00
2023-03-03T18:55:27.754Z,100.00
2023-03-03T18:58:22.829Z,100.00
2023-03-03T19:00:53.763Z,100.00
2023-03-03T19:03:30.118Z,100.00
2023-03-03T19:06:00.826Z,100.00
2023-03-03T19:08:31.109Z,100.00
2023-03-03T19:11:01.022Z,100.00
2023-03-03T19:13:44.937Z,100.00
2023-03-03T19:16:30.743Z,100.00
2023-03-03T19:19:03.006Z,100.00
2023-03-03T19:21:33.773Z,100.00
2023-03-03T19:24:04.636Z,100.00
2023-03-03T19:26:57.869Z,100.00
2023-03-03T19:30:13.997Z,100.00
2023-03-03T19:33:01.530Z,100.00
2023-03-03T19:35:38.741Z,100.00
2023-03-03T19:38:23.205Z,100.00
2023-03-03T19:41:00.437Z,100.00
2023-03-03T19:43:41.658Z,100.00
2023-03-03T19:46:33.051Z,100.00
2023-03-03T19:49:09.516Z,100.00
2023-03-03T19:51:47.340Z,100.00
2023-03-03T19:54:25.805Z,100.00
2023-03-03T19:56:55.456Z,100.00
2023-03-03T19:59:33.666Z,100.00
2023-03-03T20:02:28.114Z,100.00
2023-03-03T20:05:08.756Z,100.00
2023-03-03T20:07:46.439Z,100.00
2023-03-03T20:10:36.674Z,100.00
2023-03-03T20:13:13.356Z,100.00
2023-03-03T20:15:52.708Z,100.00
2023-03-03T20:18:37.343Z,100.00
2023-03-03T20:21:15.367Z,100.00
2023-03-03T20:23:58.272Z,100.00
2023-03-03T20:26:33.206Z,100.00
2023-03-03T20:29:14.614Z,100.00
2023-03-03T20:31:54.647Z,100.00
2023-03-03T20:34:35.081Z,100.00
2023-03-03T20:37:09.196Z,100.00
2023-03-03T20:39:51.676Z,100.00
2023-03-03T20:42:33.270Z,100.00
2023-03-03T20:45:23.156Z,100.00
2023-03-03T20:48:03.210Z,100.00
2023-03-03T20:50:37.644Z,100.00
2023-03-03T20:53:18.437Z,100.00
2023-03-03T20:56:01.523Z,100.00
2023-03-03T20:58:43.875Z,100.00
2023-03-03T21:01:15.684Z,100.00
2023-03-03T21:03:46.191Z,100.00
2023-03-03T21:06:16.485Z,100.00
2023-03-03T21:08:49.941Z,100.00
2023-03-03T21:11:22.387Z,100.00
2023-03-03T21:13:52.127Z,100.00
2023-03-03T21:16:33.915Z,100.00
2023-03-03T21:19:03.827Z,100.00
2023-03-03T21:21:34.579Z,100.00
2023-03-03T21:24:02.863Z,100.00
2023-03-03T21:27:02.506Z,100.00
2023-03-03T21:29:31.894Z,100.00
2023-03-03T21:32:01.916Z,100.00
2023-03-03T21:34:32.165Z,100.00
2023-03-03T21:37:02.183Z,100.00
2023-03-03T21:39:32.203Z,100.00
2023-03-03T21:42:05.113Z,100.00
2023-03-03T21:44:39.199Z,100.00
2023-03-03T21:47:09.365Z,100.00
2023-03-03T21:49:41.249Z,100.00
2023-03-03T21:52:10.180Z,100.00
2023-03-03T21:54:38.487Z,100.00
2023-03-03T21:57:08.352Z,100.00
2023-03-03T21:59:36.987Z,100.00
2023-03-03T22:02:05.502Z,100.00
2023-03-03T22:04:34.414Z,100.00
2023-03-03T22:07:02.888Z,100.00
2023-03-03T22:09:31.220Z,100.00
2023-03-03T22:11:59.355Z,100.00
2023-03-03T22:14:29.470Z,100.00
2023-03-03T22:16:57.963Z,100.00
2023-03-03T22:19:26.429Z,100.00
2023-03-03T22:21:55.203Z,100.00
2023-03-03T22:24:23.335Z,100.00
2023-03-03T22:26:51.754Z,100.00
2023-03-03T22:29:23.124Z,100.00
2023-03-03T22:31:53.124Z,100.00
2023-03-03T22:34:21.484Z,100.00
2023-03-03T22:36:49.745Z,100.00
2023-03-03T22:39:18.098Z,100.00
2023-03-03T22:41:46.369Z,100.00
2023-03-03T22:44:14.493Z,100.00
2023-03-03T22:46:42.762Z,100.00
2023-03-03T22:49:12.761Z,100.00
2023-03-03T22:51:41.169Z,100.00
2023-03-03T22:54:09.230Z,100.00
2023-03-03T22:56:37.537Z,100.00
2023-03-03T22:59:05.704Z,100.00
2023-03-03T23:01:34.182Z,100.00
2023-03-03T23:04:02.701Z,100.00
2023-03-03T23:06:32.313Z,100.00
2023-03-03T23:09:00.514Z,100.00
2023-03-03T23:11:29.028Z,100.00
2023-03-03T23:13:57.385Z,100.00
2023-03-03T23:16:27.104Z,100.00
2023-03-03T23:18:55.462Z,100.00
2023-03-03T23:21:23.998Z,100.00
2023-03-03T23:23:53.710Z,100.00
2023-03-03T23:26:21.901Z,100.00
2023-03-03T23:28:50.316Z,100.00
2023-03-03T23:31:18.462Z,100.00
2023-03-03T23:33:46.808Z,100.00
2023-03-03T23:36:14.961Z,100.00
2023-03-03T23:38:43.315Z,100.00
2023-03-03T23:41:12.798Z,100.00
2023-03-03T23:43:40.937Z,100.00
2023-03-03T23:46:09.245Z,100.00
2023-03-03T23:48:37.698Z,100.00
2023-03-03T23:51:06.407Z,100.00
2023-03-03T23:53:34.589Z,100.00
2023-03-03T23:56:02.824Z,100.00
2023-03-03T23:58:32.345Z,100.00
